sensor_id;sensor_type;location;lat;lon;timestamp;P1;durP1;ratioP1;P2;durP2;ratioP2
61635;SDS011;59438;45.014;39.006;2022-07-18T00:00:58;6.93;;;4.50;;
61635;SDS011;59438;45.014;39.006;2022-07-18T00:03:25;5.82;;;4.13;;
61635;SDS011;59438;45.014;39.006;2022-07-18T00:05:51;8.57;;;4.00;;
61635;SDS011;59438;45.014;39.006;2022-07-18T00:08:18;7.90;;;4.55;;
61635;SDS011;59438;45.014;39.006;2022-07-18T00:10:44;8.70;;;4.20;;
61635;SDS011;59438;45.014;39.006;2022-07-18T00:13:11;4.97;;;4.22;;
61635;SDS011;59438;45.014;39.006;2022-07-18T00:15:38;10.63;;;4.53;;
61635;SDS011;59438;45.014;39.006;2022-07-18T00:18:05;7.43;;;4.78;;
61635;SDS011;59438;45.014;39.006;2022-07-18T00:20:31;8.02;;;4.53;;
61635;SDS011;59438;45.014;39.006;2022-07-18T00:22:57;5.40;;;4.10;;
61635;SDS011;59438;45.014;39.006;2022-07-18T00:25:24;7.72;;;4.50;;
61635;SDS011;59438;45.014;39.006;2022-07-18T00:27:50;5.90;;;4.40;;
61635;SDS011;59438;45.014;39.006;2022-07-18T00:30:16;7.55;;;4.20;;
61635;SDS011;59438;45.014;39.006;2022-07-18T00:32:44;7.55;;;4.75;;
61635;SDS011;59438;45.014;39.006;2022-07-18T00:35:10;6.53;;;4.53;;
61635;SDS011;59438;45.014;39.006;2022-07-18T00:37:37;12.13;;;4.32;;
61635;SDS011;59438;45.014;39.006;2022-07-18T00:40:04;11.45;;;4.60;;
61635;SDS011;59438;45.014;39.006;2022-07-18T00:42:31;5.63;;;4.40;;
61635;SDS011;59438;45.014;39.006;2022-07-18T00:44:57;7.07;;;4.30;;
61635;SDS011;59438;45.014;39.006;2022-07-18T00:47:24;8.15;;;4.22;;
61635;SDS011;59438;45.014;39.006;2022-07-18T00:49:52;6.97;;;4.20;;
61635;SDS011;59438;45.014;39.006;2022-07-18T00:52:18;6.45;;;4.53;;
61635;SDS011;59438;45.014;39.006;2022-07-18T00:54:44;8.23;;;4.80;;
61635;SDS011;59438;45.014;39.006;2022-07-18T00:57:11;8.73;;;4.72;;
61635;SDS011;59438;45.014;39.006;2022-07-18T00:59:38;9.70;;;4.57;;
61635;SDS011;59438;45.014;39.006;2022-07-18T01:02:05;9.10;;;4.82;;
61635;SDS011;59438;45.014;39.006;2022-07-18T01:04:31;8.60;;;4.57;;
61635;SDS011;59438;45.014;39.006;2022-07-18T01:06:59;6.80;;;4.63;;
61635;SDS011;59438;45.014;39.006;2022-07-18T01:09:25;7.40;;;5.47;;
61635;SDS011;59438;45.014;39.006;2022-07-18T01:11:51;12.65;;;5.32;;
61635;SDS011;59438;45.014;39.006;2022-07-18T01:14:18;9.02;;;5.43;;
61635;SDS011;59438;45.014;39.006;2022-07-18T01:16:44;9.82;;;5.60;;
61635;SDS011;59438;45.014;39.006;2022-07-18T01:19:11;9.77;;;5.45;;
61635;SDS011;59438;45.014;39.006;2022-07-18T01:21:39;13.35;;;5.72;;
61635;SDS011;59438;45.014;39.006;2022-07-18T01:24:05;8.95;;;6.40;;
61635;SDS011;59438;45.014;39.006;2022-07-18T01:26:31;7.78;;;6.15;;
61635;SDS011;59438;45.014;39.006;2022-07-18T01:28:58;9.27;;;6.10;;
61635;SDS011;59438;45.014;39.006;2022-07-18T01:31:24;9.90;;;5.50;;
61635;SDS011;59438;45.014;39.006;2022-07-18T01:33:53;9.20;;;5.97;;
61635;SDS011;59438;45.014;39.006;2022-07-18T01:36:19;11.25;;;5.97;;
61635;SDS011;59438;45.014;39.006;2022-07-18T01:38:47;12.63;;;5.85;;
61635;SDS011;59438;45.014;39.006;2022-07-18T01:41:13;7.97;;;6.00;;
61635;SDS011;59438;45.014;39.006;2022-07-18T01:43:40;12.60;;;5.97;;
61635;SDS011;59438;45.014;39.006;2022-07-18T01:46:07;10.07;;;5.93;;
61635;SDS011;59438;45.014;39.006;2022-07-18T01:48:36;9.75;;;5.93;;
61635;SDS011;59438;45.014;39.006;2022-07-18T01:51:02;10.07;;;5.97;;
61635;SDS011;59438;45.014;39.006;2022-07-18T01:53:29;10.63;;;6.13;;
61635;SDS011;59438;45.014;39.006;2022-07-18T01:55:57;14.43;;;5.82;;
61635;SDS011;59438;45.014;39.006;2022-07-18T01:58:23;13.75;;;6.57;;
61635;SDS011;59438;45.014;39.006;2022-07-18T02:00:49;10.50;;;6.20;;
61635;SDS011;59438;45.014;39.006;2022-07-18T02:03:15;13.40;;;6.57;;
61635;SDS011;59438;45.014;39.006;2022-07-18T02:05:42;9.60;;;6.32;;
61635;SDS011;59438;45.014;39.006;2022-07-18T02:08:08;11.73;;;6.45;;
61635;SDS011;59438;45.014;39.006;2022-07-18T02:10:35;8.77;;;5.97;;
61635;SDS011;59438;45.014;39.006;2022-07-18T02:13:03;10.82;;;6.45;;
61635;SDS011;59438;45.014;39.006;2022-07-18T02:15:30;11.52;;;6.45;;
61635;SDS011;59438;45.014;39.006;2022-07-18T02:17:56;10.18;;;5.75;;
61635;SDS011;59438;45.014;39.006;2022-07-18T02:20:23;11.38;;;6.70;;
61635;SDS011;59438;45.014;39.006;2022-07-18T02:22:49;11.13;;;6.43;;
61635;SDS011;59438;45.014;39.006;2022-07-18T02:25:15;10.40;;;6.50;;
61635;SDS011;59438;45.014;39.006;2022-07-18T02:27:42;15.55;;;6.82;;
61635;SDS011;59438;45.014;39.006;2022-07-18T02:30:10;9.48;;;6.47;;
61635;SDS011;59438;45.014;39.006;2022-07-18T02:32:37;8.07;;;6.30;;
61635;SDS011;59438;45.014;39.006;2022-07-18T02:35:04;14.45;;;6.88;;
61635;SDS011;59438;45.014;39.006;2022-07-18T02:37:32;16.30;;;7.47;;
61635;SDS011;59438;45.014;39.006;2022-07-18T02:39:59;11.65;;;7.50;;
61635;SDS011;59438;45.014;39.006;2022-07-18T02:42:25;11.05;;;7.40;;
61635;SDS011;59438;45.014;39.006;2022-07-18T02:44:51;16.60;;;7.38;;
61635;SDS011;59438;45.014;39.006;2022-07-18T02:47:19;17.42;;;7.95;;
61635;SDS011;59438;45.014;39.006;2022-07-18T02:49:45;15.43;;;7.00;;
61635;SDS011;59438;45.014;39.006;2022-07-18T02:52:12;9.82;;;7.72;;
61635;SDS011;59438;45.014;39.006;2022-07-18T02:54:38;9.50;;;7.47;;
61635;SDS011;59438;45.014;39.006;2022-07-18T02:57:04;11.10;;;7.95;;
61635;SDS011;59438;45.014;39.006;2022-07-18T02:59:31;9.43;;;7.57;;
61635;SDS011;59438;45.014;39.006;2022-07-18T03:01:58;10.18;;;7.50;;
61635;SDS011;59438;45.014;39.006;2022-07-18T03:04:26;12.75;;;7.30;;
61635;SDS011;59438;45.014;39.006;2022-07-18T03:06:52;16.48;;;7.45;;
61635;SDS011;59438;45.014;39.006;2022-07-18T03:09:19;11.50;;;6.85;;
61635;SDS011;59438;45.014;39.006;2022-07-18T03:11:45;9.65;;;7.03;;
61635;SDS011;59438;45.014;39.006;2022-07-18T03:14:12;10.10;;;6.85;;
61635;SDS011;59438;45.014;39.006;2022-07-18T03:16:38;12.50;;;7.32;;
61635;SDS011;59438;45.014;39.006;2022-07-18T03:19:05;14.40;;;7.28;;
61635;SDS011;59438;45.014;39.006;2022-07-18T03:21:33;12.98;;;7.85;;
61635;SDS011;59438;45.014;39.006;2022-07-18T03:23:59;14.77;;;7.20;;
61635;SDS011;59438;45.014;39.006;2022-07-18T03:26:25;9.82;;;7.10;;
61635;SDS011;59438;45.014;39.006;2022-07-18T03:28:52;10.32;;;7.60;;
61635;SDS011;59438;45.014;39.006;2022-07-18T03:31:18;11.05;;;8.00;;
61635;SDS011;59438;45.014;39.006;2022-07-18T03:33:44;11.73;;;7.65;;
61635;SDS011;59438;45.014;39.006;2022-07-18T03:36:11;13.75;;;8.43;;
61635;SDS011;59438;45.014;39.006;2022-07-18T03:38:38;16.42;;;8.25;;
61635;SDS011;59438;45.014;39.006;2022-07-18T03:41:05;14.27;;;7.85;;
61635;SDS011;59438;45.014;39.006;2022-07-18T03:43:31;11.20;;;7.80;;
61635;SDS011;59438;45.014;39.006;2022-07-18T03:45:57;16.05;;;8.10;;
61635;SDS011;59438;45.014;39.006;2022-07-18T03:48:24;16.40;;;8.65;;
61635;SDS011;59438;45.014;39.006;2022-07-18T03:50:50;14.25;;;8.27;;
61635;SDS011;59438;45.014;39.006;2022-07-18T03:53:17;16.13;;;7.90;;
61635;SDS011;59438;45.014;39.006;2022-07-18T03:55:44;13.00;;;8.20;;
61635;SDS011;59438;45.014;39.006;2022-07-18T03:58:11;10.23;;;7.57;;
61635;SDS011;59438;45.014;39.006;2022-07-18T04:00:37;11.27;;;7.60;;
61635;SDS011;59438;45.014;39.006;2022-07-18T04:03:04;13.20;;;7.60;;
61635;SDS011;59438;45.014;39.006;2022-07-18T04:05:30;15.57;;;7.60;;
61635;SDS011;59438;45.014;39.006;2022-07-18T04:07:57;11.20;;;7.60;;
61635;SDS011;59438;45.014;39.006;2022-07-18T04:10:23;12.95;;;7.75;;
61635;SDS011;59438;45.014;39.006;2022-07-18T04:12:52;12.60;;;7.88;;
61635;SDS011;59438;45.014;39.006;2022-07-18T04:15:21;11.85;;;7.38;;
61635;SDS011;59438;45.014;39.006;2022-07-18T04:17:48;11.05;;;6.95;;
61635;SDS011;59438;45.014;39.006;2022-07-18T04:20:15;20.98;;;7.25;;
61635;SDS011;59438;45.014;39.006;2022-07-18T04:22:46;13.32;;;6.55;;
61635;SDS011;59438;45.014;39.006;2022-07-18T04:25:14;11.43;;;6.35;;
61635;SDS011;59438;45.014;39.006;2022-07-18T04:27:41;9.93;;;6.82;;
61635;SDS011;59438;45.014;39.006;2022-07-18T04:30:09;14.32;;;6.60;;
61635;SDS011;59438;45.014;39.006;2022-07-18T04:32:36;10.38;;;6.30;;
61635;SDS011;59438;45.014;39.006;2022-07-18T04:35:02;17.30;;;7.10;;
61635;SDS011;59438;45.014;39.006;2022-07-18T04:37:29;10.18;;;6.18;;
61635;SDS011;59438;45.014;39.006;2022-07-18T04:39:56;10.13;;;6.60;;
61635;SDS011;59438;45.014;39.006;2022-07-18T04:42:23;10.88;;;6.63;;
61635;SDS011;59438;45.014;39.006;2022-07-18T04:44:50;10.55;;;6.38;;
61635;SDS011;59438;45.014;39.006;2022-07-18T04:47:17;11.60;;;6.63;;
61635;SDS011;59438;45.014;39.006;2022-07-18T04:49:44;10.25;;;6.43;;
61635;SDS011;59438;45.014;39.006;2022-07-18T04:52:10;12.38;;;6.50;;
61635;SDS011;59438;45.014;39.006;2022-07-18T04:54:37;17.27;;;7.05;;
61635;SDS011;59438;45.014;39.006;2022-07-18T04:57:03;12.63;;;6.20;;
61635;SDS011;59438;45.014;39.006;2022-07-18T04:59:29;22.73;;;7.00;;
61635;SDS011;59438;45.014;39.006;2022-07-18T05:01:56;11.75;;;6.80;;
61635;SDS011;59438;45.014;39.006;2022-07-18T05:04:23;16.52;;;6.90;;
61635;SDS011;59438;45.014;39.006;2022-07-18T05:06:50;18.45;;;7.10;;
61635;SDS011;59438;45.014;39.006;2022-07-18T05:09:16;11.05;;;6.68;;
61635;SDS011;59438;45.014;39.006;2022-07-18T05:11:42;13.68;;;6.78;;
61635;SDS011;59438;45.014;39.006;2022-07-18T05:14:09;15.57;;;7.40;;
61635;SDS011;59438;45.014;39.006;2022-07-18T05:16:35;12.70;;;6.78;;
61635;SDS011;59438;45.014;39.006;2022-07-18T05:19:01;16.02;;;6.90;;
61635;SDS011;59438;45.014;39.006;2022-07-18T05:21:29;14.15;;;6.65;;
61635;SDS011;59438;45.014;39.006;2022-07-18T05:23:56;19.67;;;6.68;;
61635;SDS011;59438;45.014;39.006;2022-07-18T05:26:22;16.83;;;6.78;;
61635;SDS011;59438;45.014;39.006;2022-07-18T05:28:48;18.63;;;7.13;;
61635;SDS011;59438;45.014;39.006;2022-07-18T05:31:15;12.70;;;6.55;;
61635;SDS011;59438;45.014;39.006;2022-07-18T05:33:41;11.20;;;6.40;;
61635;SDS011;59438;45.014;39.006;2022-07-18T05:36:08;9.80;;;6.45;;
61635;SDS011;59438;45.014;39.006;2022-07-18T05:38:37;8.93;;;6.38;;
61635;SDS011;59438;45.014;39.006;2022-07-18T05:41:03;13.52;;;6.38;;
61635;SDS011;59438;45.014;39.006;2022-07-18T05:43:30;11.07;;;5.90;;
61635;SDS011;59438;45.014;39.006;2022-07-18T05:45:56;14.55;;;6.30;;
61635;SDS011;59438;45.014;39.006;2022-07-18T05:48:23;16.23;;;6.15;;
61635;SDS011;59438;45.014;39.006;2022-07-18T05:50:49;9.57;;;5.88;;
61635;SDS011;59438;45.014;39.006;2022-07-18T05:53:15;8.63;;;6.03;;
61635;SDS011;59438;45.014;39.006;2022-07-18T05:55:43;12.98;;;6.78;;
61635;SDS011;59438;45.014;39.006;2022-07-18T05:58:10;15.20;;;5.82;;
61635;SDS011;59438;45.014;39.006;2022-07-18T06:00:36;18.02;;;6.22;;
61635;SDS011;59438;45.014;39.006;2022-07-18T06:03:02;13.07;;;5.78;;
61635;SDS011;59438;45.014;39.006;2022-07-18T06:05:29;11.60;;;5.70;;
61635;SDS011;59438;45.014;39.006;2022-07-18T06:07:55;9.48;;;5.60;;
61635;SDS011;59438;45.014;39.006;2022-07-18T06:10:23;10.48;;;5.88;;
61635;SDS011;59438;45.014;39.006;2022-07-18T06:12:51;14.23;;;6.03;;
61635;SDS011;59438;45.014;39.006;2022-07-18T06:15:18;13.30;;;5.80;;
61635;SDS011;59438;45.014;39.006;2022-07-18T06:17:45;12.45;;;6.00;;
61635;SDS011;59438;45.014;39.006;2022-07-18T06:20:12;7.88;;;5.63;;
61635;SDS011;59438;45.014;39.006;2022-07-18T06:22:38;10.70;;;5.55;;
61635;SDS011;59438;45.014;39.006;2022-07-18T06:25:05;9.88;;;5.18;;
61635;SDS011;59438;45.014;39.006;2022-07-18T06:27:32;9.00;;;5.40;;
61635;SDS011;59438;45.014;39.006;2022-07-18T06:30:00;13.02;;;5.78;;
61635;SDS011;59438;45.014;39.006;2022-07-18T06:32:27;7.55;;;5.05;;
61635;SDS011;59438;45.014;39.006;2022-07-18T06:34:53;9.45;;;5.32;;
61635;SDS011;59438;45.014;39.006;2022-07-18T06:37:19;6.88;;;5.10;;
61635;SDS011;59438;45.014;39.006;2022-07-18T06:39:46;10.30;;;4.78;;
61635;SDS011;59438;45.014;39.006;2022-07-18T06:42:12;9.57;;;5.70;;
61635;SDS011;59438;45.014;39.006;2022-07-18T06:44:38;10.93;;;5.13;;
61635;SDS011;59438;45.014;39.006;2022-07-18T06:47:06;10.35;;;5.30;;
61635;SDS011;59438;45.014;39.006;2022-07-18T06:49:33;11.57;;;4.93;;
61635;SDS011;59438;45.014;39.006;2022-07-18T06:51:59;10.15;;;5.43;;
61635;SDS011;59438;45.014;39.006;2022-07-18T06:54:25;10.98;;;5.07;;
61635;SDS011;59438;45.014;39.006;2022-07-18T06:56:52;7.00;;;4.60;;
61635;SDS011;59438;45.014;39.006;2022-07-18T06:59:18;52.72;;;6.00;;
61635;SDS011;59438;45.014;39.006;2022-07-18T07:01:44;23.67;;;5.25;;
61635;SDS011;59438;45.014;39.006;2022-07-18T07:04:12;7.28;;;5.15;;
61635;SDS011;59438;45.014;39.006;2022-07-18T07:06:39;7.80;;;5.03;;
61635;SDS011;59438;45.014;39.006;2022-07-18T07:09:05;7.45;;;4.68;;
61635;SDS011;59438;45.014;39.006;2022-07-18T07:11:32;8.48;;;4.97;;
61635;SDS011;59438;45.014;39.006;2022-07-18T07:13:58;8.98;;;4.60;;
61635;SDS011;59438;45.014;39.006;2022-07-18T07:16:24;8.27;;;4.00;;
61635;SDS011;59438;45.014;39.006;2022-07-18T07:18:51;13.95;;;4.78;;
61635;SDS011;59438;45.014;39.006;2022-07-18T07:21:18;13.05;;;4.32;;
61635;SDS011;59438;45.014;39.006;2022-07-18T07:23:45;12.75;;;4.10;;
61635;SDS011;59438;45.014;39.006;2022-07-18T07:26:11;7.55;;;3.80;;
61635;SDS011;59438;45.014;39.006;2022-07-18T07:28:37;10.25;;;3.58;;
61635;SDS011;59438;45.014;39.006;2022-07-18T07:31:04;5.93;;;3.75;;
61635;SDS011;59438;45.014;39.006;2022-07-18T07:33:30;6.68;;;3.72;;
61635;SDS011;59438;45.014;39.006;2022-07-18T07:35:57;9.80;;;4.00;;
61635;SDS011;59438;45.014;39.006;2022-07-18T07:38:24;8.13;;;3.88;;
61635;SDS011;59438;45.014;39.006;2022-07-18T07:40:51;13.40;;;3.90;;
61635;SDS011;59438;45.014;39.006;2022-07-18T07:43:17;16.55;;;3.95;;
61635;SDS011;59438;45.014;39.006;2022-07-18T07:45:45;7.10;;;3.70;;
61635;SDS011;59438;45.014;39.006;2022-07-18T07:48:12;11.85;;;3.50;;
61635;SDS011;59438;45.014;39.006;2022-07-18T07:50:38;12.70;;;3.83;;
61635;SDS011;59438;45.014;39.006;2022-07-18T07:53:05;7.07;;;3.28;;
61635;SDS011;59438;45.014;39.006;2022-07-18T07:55:33;5.63;;;3.25;;
61635;SDS011;59438;45.014;39.006;2022-07-18T07:57:59;11.73;;;3.60;;
61635;SDS011;59438;45.014;39.006;2022-07-18T08:00:26;17.10;;;3.63;;
61635;SDS011;59438;45.014;39.006;2022-07-18T08:02:53;17.30;;;3.63;;
61635;SDS011;59438;45.014;39.006;2022-07-18T08:05:21;7.63;;;3.10;;
61635;SDS011;59438;45.014;39.006;2022-07-18T08:07:48;5.07;;;3.30;;
61635;SDS011;59438;45.014;39.006;2022-07-18T08:10:14;6.15;;;3.50;;
61635;SDS011;59438;45.014;39.006;2022-07-18T08:12:42;9.70;;;3.97;;
61635;SDS011;59438;45.014;39.006;2022-07-18T08:15:09;8.82;;;3.42;;
61635;SDS011;59438;45.014;39.006;2022-07-18T08:17:36;7.25;;;3.42;;
61635;SDS011;59438;45.014;39.006;2022-07-18T08:20:03;6.07;;;3.30;;
61635;SDS011;59438;45.014;39.006;2022-07-18T08:22:30;5.18;;;2.88;;
61635;SDS011;59438;45.014;39.006;2022-07-18T08:24:56;8.10;;;3.53;;
61635;SDS011;59438;45.014;39.006;2022-07-18T08:27:22;6.43;;;3.45;;
61635;SDS011;59438;45.014;39.006;2022-07-18T08:29:50;8.45;;;3.47;;
61635;SDS011;59438;45.014;39.006;2022-07-18T08:32:17;5.80;;;3.20;;
61635;SDS011;59438;45.014;39.006;2022-07-18T08:34:43;12.85;;;3.58;;
61635;SDS011;59438;45.014;39.006;2022-07-18T08:37:09;7.32;;;3.80;;
61635;SDS011;59438;45.014;39.006;2022-07-18T08:39:36;8.40;;;3.83;;
61635;SDS011;59438;45.014;39.006;2022-07-18T08:42:02;10.38;;;3.70;;
61635;SDS011;59438;45.014;39.006;2022-07-18T08:44:30;5.70;;;3.40;;
61635;SDS011;59438;45.014;39.006;2022-07-18T08:47:01;7.38;;;3.55;;
61635;SDS011;59438;45.014;39.006;2022-07-18T08:49:29;7.10;;;3.50;;
61635;SDS011;59438;45.014;39.006;2022-07-18T08:51:56;8.20;;;3.60;;
61635;SDS011;59438;45.014;39.006;2022-07-18T08:54:22;10.43;;;3.90;;
61635;SDS011;59438;45.014;39.006;2022-07-18T08:56:49;8.73;;;3.28;;
61635;SDS011;59438;45.014;39.006;2022-07-18T08:59:15;8.15;;;3.58;;
61635;SDS011;59438;45.014;39.006;2022-07-18T09:01:43;6.10;;;3.50;;
61635;SDS011;59438;45.014;39.006;2022-07-18T09:04:11;11.95;;;3.75;;
61635;SDS011;59438;45.014;39.006;2022-07-18T09:06:43;6.95;;;3.55;;
61635;SDS011;59438;45.014;39.006;2022-07-18T09:09:11;7.85;;;3.80;;
61635;SDS011;59438;45.014;39.006;2022-07-18T09:11:48;8.32;;;3.60;;
61635;SDS011;59438;45.014;39.006;2022-07-18T09:14:26;9.50;;;3.45;;
61635;SDS011;59438;45.014;39.006;2022-07-18T09:16:59;10.73;;;3.60;;
61635;SDS011;59438;45.014;39.006;2022-07-18T09:19:27;9.63;;;3.90;;
61635;SDS011;59438;45.014;39.006;2022-07-18T09:21:54;8.85;;;3.60;;
61635;SDS011;59438;45.014;39.006;2022-07-18T09:24:41;8.80;;;4.05;;
61635;SDS011;59438;45.014;39.006;2022-07-18T09:27:22;4.38;;;3.40;;
61635;SDS011;59438;45.014;39.006;2022-07-18T09:29:53;7.60;;;3.80;;
61635;SDS011;59438;45.014;39.006;2022-07-18T09:32:47;4.95;;;3.20;;
61635;SDS011;59438;45.014;39.006;2022-07-18T09:35:17;11.65;;;3.70;;
61635;SDS011;59438;45.014;39.006;2022-07-18T09:37:55;8.90;;;3.88;;
61635;SDS011;59438;45.014;39.006;2022-07-18T09:40:24;12.52;;;3.63;;
61635;SDS011;59438;45.014;39.006;2022-07-18T09:42:53;5.57;;;3.72;;
61635;SDS011;59438;45.014;39.006;2022-07-18T09:45:22;6.38;;;3.65;;
61635;SDS011;59438;45.014;39.006;2022-07-18T09:47:50;9.52;;;3.75;;
61635;SDS011;59438;45.014;39.006;2022-07-18T09:50:22;8.40;;;3.40;;
61635;SDS011;59438;45.014;39.006;2022-07-18T09:52:57;5.05;;;3.30;;
61635;SDS011;59438;45.014;39.006;2022-07-18T09:55:42;11.50;;;3.67;;
61635;SDS011;59438;45.014;39.006;2022-07-18T09:58:10;11.40;;;3.70;;
61635;SDS011;59438;45.014;39.006;2022-07-18T10:00:37;7.20;;;3.13;;
61635;SDS011;59438;45.014;39.006;2022-07-18T10:03:05;7.68;;;3.10;;
61635;SDS011;59438;45.014;39.006;2022-07-18T10:05:35;10.20;;;3.33;;
61635;SDS011;59438;45.014;39.006;2022-07-18T10:08:04;5.70;;;3.20;;
61635;SDS011;59438;45.014;39.006;2022-07-18T10:10:32;7.00;;;3.28;;
61635;SDS011;59438;45.014;39.006;2022-07-18T10:12:59;6.38;;;3.65;;
61635;SDS011;59438;45.014;39.006;2022-07-18T10:15:27;6.03;;;3.30;;
61635;SDS011;59438;45.014;39.006;2022-07-18T10:17:55;6.05;;;3.30;;
61635;SDS011;59438;45.014;39.006;2022-07-18T10:20:29;6.80;;;3.22;;
61635;SDS011;59438;45.014;39.006;2022-07-18T10:23:01;5.40;;;3.30;;
61635;SDS011;59438;45.014;39.006;2022-07-18T10:25:32;6.20;;;3.05;;
61635;SDS011;59438;45.014;39.006;2022-07-18T10:28:03;7.97;;;3.00;;
61635;SDS011;59438;45.014;39.006;2022-07-18T10:30:32;6.93;;;3.00;;
61635;SDS011;59438;45.014;39.006;2022-07-18T10:36:06;8.60;;;3.10;;
61635;SDS011;59438;45.014;39.006;2022-07-18T10:41:31;5.28;;;2.75;;
61635;SDS011;59438;45.014;39.006;2022-07-18T10:44:31;5.65;;;3.40;;
61635;SDS011;59438;45.014;39.006;2022-07-18T10:47:03;8.40;;;3.10;;
61635;SDS011;59438;45.014;39.006;2022-07-18T10:55:28;6.30;;;2.83;;
61635;SDS011;59438;45.014;39.006;2022-07-18T11:00:42;14.35;;;3.20;;
61635;SDS011;59438;45.014;39.006;2022-07-18T11:03:12;10.00;;;2.75;;
61635;SDS011;59438;45.014;39.006;2022-07-18T11:05:42;5.82;;;2.95;;
61635;SDS011;59438;45.014;39.006;2022-07-18T11:08:15;6.30;;;2.95;;
61635;SDS011;59438;45.014;39.006;2022-07-18T11:11:06;8.25;;;3.10;;
61635;SDS011;59438;45.014;39.006;2022-07-18T11:13:34;19.80;;;3.90;;
61635;SDS011;59438;45.014;39.006;2022-07-18T11:16:02;7.95;;;2.80;;
61635;SDS011;59438;45.014;39.006;2022-07-18T11:18:30;7.43;;;2.67;;
61635;SDS011;59438;45.014;39.006;2022-07-18T11:20:58;37.83;;;4.47;;
61635;SDS011;59438;45.014;39.006;2022-07-18T11:23:26;5.20;;;3.22;;
61635;SDS011;59438;45.014;39.006;2022-07-18T11:25:53;6.40;;;3.17;;
61635;SDS011;59438;45.014;39.006;2022-07-18T11:28:22;23.00;;;3.58;;
61635;SDS011;59438;45.014;39.006;2022-07-18T11:30:58;6.40;;;2.72;;
61635;SDS011;59438;45.014;39.006;2022-07-18T11:33:27;8.70;;;2.90;;
61635;SDS011;59438;45.014;39.006;2022-07-18T11:38:27;4.43;;;3.00;;
61635;SDS011;59438;45.014;39.006;2022-07-18T11:40:54;10.02;;;2.60;;
61635;SDS011;59438;45.014;39.006;2022-07-18T11:43:22;9.20;;;3.05;;
61635;SDS011;59438;45.014;39.006;2022-07-18T11:45:58;7.65;;;2.75;;
61635;SDS011;59438;45.014;39.006;2022-07-18T11:48:28;6.28;;;2.42;;
61635;SDS011;59438;45.014;39.006;2022-07-18T11:50:54;4.15;;;2.63;;
61635;SDS011;59438;45.014;39.006;2022-07-18T11:53:21;5.63;;;2.38;;
61635;SDS011;59438;45.014;39.006;2022-07-18T11:55:47;7.05;;;2.42;;
61635;SDS011;59438;45.014;39.006;2022-07-18T11:58:14;8.43;;;2.53;;
61635;SDS011;59438;45.014;39.006;2022-07-18T12:01:02;7.43;;;2.80;;
61635;SDS011;59438;45.014;39.006;2022-07-18T12:03:49;6.68;;;2.67;;
61635;SDS011;59438;45.014;39.006;2022-07-18T12:06:17;8.57;;;2.92;;
61635;SDS011;59438;45.014;39.006;2022-07-18T12:08:45;19.55;;;3.20;;
61635;SDS011;59438;45.014;39.006;2022-07-18T12:11:16;15.15;;;3.25;;
61635;SDS011;59438;45.014;39.006;2022-07-18T12:13:53;10.18;;;3.60;;
61635;SDS011;59438;45.014;39.006;2022-07-18T12:16:32;5.85;;;3.60;;
61635;SDS011;59438;45.014;39.006;2022-07-18T12:19:02;11.43;;;3.38;;
61635;SDS011;59438;45.014;39.006;2022-07-18T12:21:39;9.60;;;3.10;;
61635;SDS011;59438;45.014;39.006;2022-07-18T12:24:18;15.45;;;3.45;;
61635;SDS011;59438;45.014;39.006;2022-07-18T12:26:45;6.28;;;3.00;;
61635;SDS011;59438;45.014;39.006;2022-07-18T12:29:11;29.20;;;3.58;;
61635;SDS011;59438;45.014;39.006;2022-07-18T12:31:41;7.50;;;2.70;;
61635;SDS011;59438;45.014;39.006;2022-07-18T12:34:09;13.25;;;3.03;;
61635;SDS011;59438;45.014;39.006;2022-07-18T12:36:50;45.63;;;5.13;;
61635;SDS011;59438;45.014;39.006;2022-07-18T12:39:24;6.63;;;2.50;;
61635;SDS011;59438;45.014;39.006;2022-07-18T12:41:54;11.73;;;2.90;;
61635;SDS011;59438;45.014;39.006;2022-07-18T12:44:21;11.93;;;2.80;;
61635;SDS011;59438;45.014;39.006;2022-07-18T12:46:49;3.90;;;2.47;;
61635;SDS011;59438;45.014;39.006;2022-07-18T12:49:15;3.22;;;2.25;;
61635;SDS011;59438;45.014;39.006;2022-07-18T12:51:42;6.38;;;2.58;;
61635;SDS011;59438;45.014;39.006;2022-07-18T12:54:08;5.75;;;2.75;;
61635;SDS011;59438;45.014;39.006;2022-07-18T12:56:34;3.75;;;2.25;;
61635;SDS011;59438;45.014;39.006;2022-07-18T12:59:01;5.57;;;2.80;;
61635;SDS011;59438;45.014;39.006;2022-07-18T13:01:27;5.22;;;2.30;;
61635;SDS011;59438;45.014;39.006;2022-07-18T13:03:55;9.50;;;2.50;;
61635;SDS011;59438;45.014;39.006;2022-07-18T13:06:21;11.98;;;3.10;;
61635;SDS011;59438;45.014;39.006;2022-07-18T13:08:48;5.22;;;2.30;;
61635;SDS011;59438;45.014;39.006;2022-07-18T13:11:14;5.90;;;2.33;;
61635;SDS011;59438;45.014;39.006;2022-07-18T13:13:41;38.53;;;3.65;;
61635;SDS011;59438;45.014;39.006;2022-07-18T13:16:07;9.48;;;2.40;;
61635;SDS011;59438;45.014;39.006;2022-07-18T13:18:33;8.15;;;2.50;;
61635;SDS011;59438;45.014;39.006;2022-07-18T13:21:01;8.63;;;2.63;;
61635;SDS011;59438;45.014;39.006;2022-07-18T13:23:28;6.43;;;2.20;;
61635;SDS011;59438;45.014;39.006;2022-07-18T13:25:54;8.75;;;2.42;;
61635;SDS011;59438;45.014;39.006;2022-07-18T13:28:20;5.10;;;2.10;;
61635;SDS011;59438;45.014;39.006;2022-07-18T13:30:47;6.72;;;2.00;;
61635;SDS011;59438;45.014;39.006;2022-07-18T13:33:13;9.90;;;2.30;;
61635;SDS011;59438;45.014;39.006;2022-07-18T13:35:39;9.27;;;2.28;;
61635;SDS011;59438;45.014;39.006;2022-07-18T13:38:07;9.73;;;2.20;;
61635;SDS011;59438;45.014;39.006;2022-07-18T13:40:33;5.80;;;1.80;;
61635;SDS011;59438;45.014;39.006;2022-07-18T13:43:00;5.97;;;1.80;;
61635;SDS011;59438;45.014;39.006;2022-07-18T13:45:26;8.27;;;1.92;;
61635;SDS011;59438;45.014;39.006;2022-07-18T13:47:53;5.57;;;1.80;;
61635;SDS011;59438;45.014;39.006;2022-07-18T13:50:19;5.32;;;2.00;;
61635;SDS011;59438;45.014;39.006;2022-07-18T13:52:45;3.45;;;1.58;;
61635;SDS011;59438;45.014;39.006;2022-07-18T13:55:13;12.30;;;2.22;;
61635;SDS011;59438;45.014;39.006;2022-07-18T13:57:39;4.32;;;1.88;;
61635;SDS011;59438;45.014;39.006;2022-07-18T14:00:06;6.80;;;2.05;;
61635;SDS011;59438;45.014;39.006;2022-07-18T14:02:34;9.55;;;1.83;;
61635;SDS011;59438;45.014;39.006;2022-07-18T14:05:00;3.78;;;1.75;;
61635;SDS011;59438;45.014;39.006;2022-07-18T14:07:27;4.07;;;1.90;;
61635;SDS011;59438;45.014;39.006;2022-07-18T14:09:53;11.00;;;2.35;;
61635;SDS011;59438;45.014;39.006;2022-07-18T14:12:21;10.48;;;2.33;;
61635;SDS011;59438;45.014;39.006;2022-07-18T14:14:47;7.05;;;2.10;;
61635;SDS011;59438;45.014;39.006;2022-07-18T14:17:14;4.75;;;1.85;;
61635;SDS011;59438;45.014;39.006;2022-07-18T14:19:40;9.38;;;1.77;;
61635;SDS011;59438;45.014;39.006;2022-07-18T14:22:06;5.82;;;1.65;;
61635;SDS011;59438;45.014;39.006;2022-07-18T14:24:33;4.78;;;1.70;;
61635;SDS011;59438;45.014;39.006;2022-07-18T14:26:59;9.07;;;1.95;;
61635;SDS011;59438;45.014;39.006;2022-07-18T14:29:27;9.20;;;1.77;;
61635;SDS011;59438;45.014;39.006;2022-07-18T14:31:53;5.00;;;1.77;;
61635;SDS011;59438;45.014;39.006;2022-07-18T14:34:19;12.48;;;2.40;;
61635;SDS011;59438;45.014;39.006;2022-07-18T14:36:46;10.13;;;1.77;;
61635;SDS011;59438;45.014;39.006;2022-07-18T14:39:13;7.88;;;1.73;;
61635;SDS011;59438;45.014;39.006;2022-07-18T14:41:39;7.90;;;1.77;;
61635;SDS011;59438;45.014;39.006;2022-07-18T14:44:05;6.28;;;1.60;;
61635;SDS011;59438;45.014;39.006;2022-07-18T14:46:33;14.55;;;2.13;;
61635;SDS011;59438;45.014;39.006;2022-07-18T14:48:59;3.53;;;1.40;;